createdAt,value
2023-03-05T00:01:38.970Z,30.58
2023-03-05T00:04:10.175Z,30.23
2023-03-05T00:06:36.641Z,29.52
2023-03-05T00:09:03.700Z,30.35
2023-03-05T00:11:31.895Z,29.38
2023-03-05T00:13:59.348Z,29.50
2023-03-05T00:16:27.185Z,29.55
2023-03-05T00:18:55.265Z,29.48
2023-03-05T00:21:31.660Z,30.42
2023-03-05T00:24:01.480Z,30.08
2023-03-05T00:26:28.948Z,31.02
2023-03-05T00:28:56.904Z,31.65
2023-03-05T00:31:26.650Z,30.05
2023-03-05T00:33:54.825Z,30.40
2023-03-05T00:36:21.864Z,31.20
2023-03-05T00:38:48.564Z,31.42
2023-03-05T00:41:15.054Z,30.92
2023-03-05T00:43:41.558Z,29.50
2023-03-05T00:46:08.337Z,30.20
2023-03-05T00:48:36.882Z,30.42
2023-03-05T00:51:03.562Z,30.95
2023-03-05T00:53:30.114Z,31.10
2023-03-05T00:55:56.553Z,31.38
2023-03-05T00:58:23.089Z,31.25
2023-03-05T01:00:50.743Z,32.97
2023-03-05T01:03:18.767Z,32.60
2023-03-05T01:05:45.270Z,30.73
2023-03-05T01:08:11.844Z,32.92
2023-03-05T01:10:38.380Z,31.90
2023-03-05T01:13:04.809Z,32.25
2023-03-05T01:15:31.223Z,32.25
2023-03-05T01:17:57.631Z,29.95
2023-03-05T01:20:24.059Z,29.40
2023-03-05T01:22:50.510Z,31.90
2023-03-05T01:25:17.587Z,30.05
2023-03-05T01:27:44.208Z,33.05
2023-03-05T01:30:12.565Z,32.78
2023-03-05T01:32:39.016Z,32.30
2023-03-05T01:35:06.604Z,33.28
2023-03-05T01:37:33.005Z,31.73
2023-03-05T01:39:59.390Z,31.65
2023-03-05T01:42:25.872Z,32.05
2023-03-05T01:45:06.660Z,31.90
2023-03-05T01:47:33.226Z,33.00
2023-03-05T01:50:01.951Z,31.23
2023-03-05T01:52:32.783Z,31.45
2023-03-05T01:55:03.686Z,30.52
2023-03-05T01:57:44.797Z,32.03
2023-03-05T02:00:17.409Z,30.00
2023-03-05T02:02:46.893Z,32.55
2023-03-05T02:05:17.990Z,32.70
2023-03-05T02:07:45.203Z,32.22
2023-03-05T02:10:17.334Z,30.92
2023-03-05T02:12:44.943Z,33.42
2023-03-05T02:15:12.483Z,32.33
2023-03-05T02:17:39.037Z,33.97
2023-03-05T02:20:12.253Z,32.15
2023-03-05T02:22:38.672Z,32.85
2023-03-05T02:25:16.779Z,31.90
2023-03-05T02:27:49.416Z,30.67
2023-03-05T02:30:15.853Z,30.30
2023-03-05T02:32:42.264Z,30.27
2023-03-05T02:35:09.098Z,30.70
2023-03-05T02:37:36.547Z,33.08
2023-03-05T02:40:03.351Z,30.83
2023-03-05T02:42:33.483Z,33.95
2023-03-05T02:45:01.131Z,30.67
2023-03-05T02:47:28.217Z,34.05
2023-03-05T02:49:55.609Z,31.38
2023-03-05T02:52:23.219Z,31.77
2023-03-05T02:54:50.198Z,32.45
2023-03-05T02:57:16.693Z,31.48
2023-03-05T02:59:43.114Z,33.35
2023-03-05T03:02:09.493Z,32.63
2023-03-05T03:04:35.922Z,32.92
2023-03-05T03:07:02.311Z,33.17
2023-03-05T03:09:30.863Z,33.35
2023-03-05T03:11:57.278Z,32.33
2023-03-05T03:14:23.703Z,32.08
2023-03-05T03:16:50.421Z,32.55
2023-03-05T03:19:17.185Z,32.50
2023-03-05T03:21:43.570Z,33.70
2023-03-05T03:24:09.972Z,32.95
2023-03-05T03:26:36.382Z,33.10
2023-03-05T03:29:02.791Z,32.92
2023-03-05T03:31:29.226Z,33.08
2023-03-05T03:33:55.642Z,33.42
2023-03-05T03:36:22.085Z,32.70
2023-03-05T03:38:48.488Z,33.40
2023-03-05T03:41:14.872Z,33.13
2023-03-05T03:43:41.257Z,31.77
2023-03-05T03:46:09.776Z,32.65
2023-03-05T03:48:36.344Z,32.30
2023-03-05T03:51:07.390Z,33.67
2023-03-05T03:53:33.897Z,31.67
2023-03-05T03:56:00.315Z,32.53
2023-03-05T03:58:26.732Z,34.35
2023-03-05T04:00:53.130Z,32.58
2023-03-05T04:03:19.510Z,33.10
2023-03-05T04:05:45.890Z,33.50
2023-03-05T04:08:12.635Z,33.83
2023-03-05T04:10:39.907Z,34.28
2023-03-05T04:13:07.002Z,32.72
2023-03-05T04:15:34.144Z,32.80
2023-03-05T04:18:00.697Z,32.92
2023-03-05T04:20:27.096Z,33.58
2023-03-05T04:22:53.633Z,32.75
2023-03-05T04:25:20.036Z,33.47
2023-03-05T04:27:46.430Z,32.35
2023-03-05T04:30:17.046Z,33.92
2023-03-05T04:32:43.674Z,32.17
2023-03-05T04:35:10.562Z,35.00
2023-03-05T04:37:37.568Z,32.20
2023-03-05T04:40:05.105Z,34.38
2023-03-05T04:42:31.563Z,34.17
2023-03-05T04:44:58.027Z,33.13
2023-03-05T04:47:24.512Z,35.40
2023-03-05T04:49:51.098Z,32.75
2023-03-05T04:52:17.496Z,33.90
2023-03-05T04:54:44.737Z,32.70
2023-03-05T04:57:11.243Z,32.95
2023-03-05T04:59:38.075Z,31.40
2023-03-05T05:02:05.377Z,33.85
2023-03-05T05:04:31.932Z,34.65
2023-03-05T05:06:59.046Z,32.85
2023-03-05T05:09:26.469Z,33.70
2023-03-05T05:11:53.201Z,34.30
2023-03-05T05:14:20.118Z,33.17
2023-03-05T05:16:46.652Z,34.80
2023-03-05T05:19:13.105Z,34.70
2023-03-05T05:21:39.857Z,34.05
2023-03-05T05:24:06.663Z,34.35
2023-03-05T05:26:33.064Z,33.90
2023-03-05T05:28:59.526Z,35.33
2023-03-05T05:31:26.048Z,33.85
2023-03-05T05:33:52.515Z,34.55
2023-03-05T05:36:22.397Z,33.92
2023-03-05T05:38:50.182Z,36.00
2023-03-05T05:41:18.924Z,33.70
2023-03-05T05:43:45.510Z,35.15
2023-03-05T05:46:18.438Z,35.45
2023-03-05T05:48:45.729Z,35.08
2023-03-05T05:51:16.625Z,34.90
2023-03-05T05:53:43.925Z,34.47
2023-03-05T05:56:11.996Z,34.47
2023-03-05T05:58:40.417Z,34.65
2023-03-05T06:01:19.962Z,33.75
2023-03-05T06:03:46.820Z,35.65
2023-03-05T06:06:15.886Z,35.00
2023-03-05T06:08:42.781Z,33.38
2023-03-05T06:11:10.168Z,35.05
2023-03-05T06:13:36.863Z,37.35
2023-03-05T06:16:07.111Z,34.72
2023-03-05T06:18:34.516Z,34.47
2023-03-05T06:21:06.209Z,34.08
2023-03-05T06:23:32.818Z,36.25
2023-03-05T06:26:00.778Z,35.30
2023-03-05T06:28:27.744Z,35.22
2023-03-05T06:31:09.037Z,34.83
2023-03-05T06:33:36.463Z,33.20
2023-03-05T06:36:05.042Z,34.63
2023-03-05T06:38:31.718Z,35.35
2023-03-05T06:41:09.448Z,36.42
2023-03-05T06:43:38.471Z,34.35
2023-03-05T06:46:12.129Z,35.38
2023-03-05T06:48:39.059Z,35.22
2023-03-05T06:51:12.231Z,36.03
2023-03-05T06:53:38.707Z,38.63
2023-03-05T06:56:05.450Z,37.40
2023-03-05T06:58:34.997Z,35.42
2023-03-05T07:01:01.646Z,36.70
2023-03-05T07:03:28.026Z,35.63
2023-03-05T07:05:54.415Z,34.55
2023-03-05T07:08:20.835Z,35.95
2023-03-05T07:10:47.330Z,35.22
2023-03-05T07:13:13.726Z,34.78
2023-03-05T07:15:41.226Z,35.30
2023-03-05T07:18:08.140Z,35.75
2023-03-05T07:20:37.838Z,36.05
2023-03-05T07:23:06.408Z,35.47
2023-03-05T07:25:36.898Z,34.55
2023-03-05T07:28:10.896Z,36.20
2023-03-05T07:30:37.644Z,35.03
2023-03-05T07:33:04.327Z,35.78
2023-03-05T07:35:41.256Z,34.78
2023-03-05T07:38:07.669Z,34.80
2023-03-05T07:40:34.544Z,34.83
2023-03-05T07:43:00.932Z,34.25
2023-03-05T07:45:33.265Z,36.05
2023-03-05T07:47:59.830Z,35.45
2023-03-05T07:50:26.242Z,35.75
2023-03-05T07:52:52.937Z,34.20
2023-03-05T07:55:19.326Z,35.40
2023-03-05T07:57:45.767Z,33.30
2023-03-05T08:00:12.882Z,33.83
2023-03-05T08:02:39.336Z,34.45
2023-03-05T08:05:05.959Z,34.25
2023-03-05T08:07:32.366Z,33.80
2023-03-05T08:09:58.772Z,34.47
2023-03-05T08:12:25.169Z,32.60
2023-03-05T08:14:51.564Z,34.75
2023-03-05T08:17:18.052Z,32.22
2023-03-05T08:19:44.439Z,31.30
2023-03-05T08:22:10.828Z,30.67
2023-03-05T08:24:37.308Z,33.45
2023-03-05T08:27:03.806Z,32.58
2023-03-05T08:29:30.643Z,31.35
2023-03-05T08:31:57.039Z,33.50
2023-03-05T08:34:23.625Z,31.05
2023-03-05T08:36:50.156Z,31.77
2023-03-05T08:39:17.116Z,31.17
2023-03-05T08:41:43.534Z,32.08
2023-03-05T08:44:10.181Z,33.30
2023-03-05T08:46:39.452Z,33.63
2023-03-05T08:49:12.106Z,32.22
2023-03-05T08:51:38.605Z,33.47
2023-03-05T08:54:07.134Z,34.78
2023-03-05T08:56:34.842Z,33.03
2023-03-05T08:59:02.026Z,33.05
2023-03-05T09:01:30.539Z,33.72
2023-03-05T09:04:00.248Z,31.77
2023-03-05T09:06:27.777Z,31.33
2023-03-05T09:08:54.606Z,29.85
2023-03-05T09:11:21.772Z,31.00
2023-03-05T09:13:48.269Z,32.50
2023-03-05T09:16:18.192Z,32.58
2023-03-05T09:18:45.465Z,31.40
2023-03-05T09:21:15.441Z,31.05
2023-03-05T09:23:43.103Z,31.20
2023-03-05T09:26:16.321Z,31.00
2023-03-05T09:28:45.661Z,39.17
2023-03-05T09:31:12.333Z,32.22
2023-03-05T09:33:39.254Z,29.35
2023-03-05T09:36:16.522Z,27.05
2023-03-05T09:38:42.967Z,31.48
2023-03-05T09:41:51.362Z,30.67
2023-03-05T09:44:43.837Z,23.70
2023-03-05T09:47:29.146Z,21.67
2023-03-05T09:49:59.908Z,18.38
2023-03-05T09:52:57.825Z,20.65
2023-03-05T09:55:29.457Z,20.77
2023-03-05T09:58:03.094Z,19.38
2023-03-05T10:00:38.289Z,17.40
2023-03-05T10:03:10.104Z,18.92
2023-03-05T10:05:47.638Z,21.42
2023-03-05T10:08:22.798Z,21.52
2023-03-05T10:10:53.925Z,20.83
2023-03-05T10:13:32.371Z,21.98
2023-03-05T10:16:19.822Z,21.75
2023-03-05T10:19:19.766Z,22.50
2023-03-05T10:22:07.874Z,21.98
2023-03-05T10:25:13.018Z,18.25
2023-03-05T10:27:55.150Z,16.73
2023-03-05T10:31:00.889Z,15.30
2023-03-05T10:33:49.534Z,13.32
2023-03-05T10:36:26.626Z,12.05
2023-03-05T10:39:18.995Z,16.45
2023-03-05T10:41:54.500Z,15.55
2023-03-05T10:44:36.312Z,16.43
2023-03-05T10:47:25.504Z,15.65
2023-03-05T10:49:55.859Z,14.40
2023-03-05T10:52:33.217Z,14.38
2023-03-05T10:54:59.697Z,14.85
2023-03-05T10:57:28.122Z,13.50
2023-03-05T11:00:00.814Z,12.57
2023-03-05T11:02:27.577Z,12.20
2023-03-05T11:04:57.232Z,11.55
2023-03-05T11:07:23.763Z,11.75
2023-03-05T11:10:19.393Z,13.02
2023-03-05T11:12:47.510Z,12.60
2023-03-05T11:15:28.813Z,12.90
2023-03-05T11:18:07.349Z,12.23
2023-03-05T11:20:36.227Z,10.80
2023-03-05T11:23:24.881Z,10.82
2023-03-05T11:26:22.955Z,11.40
2023-03-05T11:28:52.571Z,10.43
2023-03-05T11:31:54.607Z,10.18
2023-03-05T11:34:25.579Z,10.15
2023-03-05T11:37:03.900Z,10.13
2023-03-05T11:39:34.600Z,10.48
2023-03-05T11:42:13.869Z,9.95
2023-03-05T11:44:58.728Z,8.88
2023-03-05T11:48:06.174Z,9.23
2023-03-05T11:50:35.437Z,10.20
2023-03-05T11:53:11.133Z,9.45
2023-03-05T11:55:48.918Z,9.98
2023-03-05T11:58:42.732Z,9.32
2023-03-05T12:01:32.118Z,9.70
2023-03-05T12:04:00.173Z,9.15
2023-03-05T12:06:34.846Z,10.70
2023-03-05T12:09:09.594Z,9.85
2023-03-05T12:11:50.260Z,9.70
2023-03-05T12:14:25.601Z,10.38
2023-03-05T12:17:10.365Z,9.93
2023-03-05T12:20:04.808Z,9.50
2023-03-05T12:22:39.782Z,9.70
2023-03-05T12:25:32.346Z,10.57
2023-03-05T12:27:59.532Z,10.07
2023-03-05T12:30:42.361Z,10.40
2023-03-05T12:33:43.384Z,9.85
2023-03-05T12:36:22.030Z,9.55
2023-03-05T12:38:55.972Z,9.68
2023-03-05T12:41:22.303Z,9.70
2023-03-05T12:44:07.035Z,9.65
2023-03-05T12:46:41.970Z,9.85
2023-03-05T12:49:44.686Z,9.30
2023-03-05T12:52:22.684Z,9.07
2023-03-05T12:55:22.399Z,10.18
2023-03-05T12:57:57.295Z,10.05
2023-03-05T13:00:53.099Z,10.13
2023-03-05T13:03:54.554Z,9.63
2023-03-05T13:06:34.092Z,9.38
2023-03-05T13:09:03.397Z,9.52
2023-03-05T13:11:32.067Z,9.32
2023-03-05T13:13:58.524Z,10.00
2023-03-05T13:16:29.200Z,9.73
2023-03-05T13:18:59.484Z,9.80
2023-03-05T13:21:32.099Z,9.40
2023-03-05T13:24:01.690Z,9.88
2023-03-05T13:26:41.174Z,10.02
2023-03-05T13:29:16.833Z,9.45
2023-03-05T13:31:46.432Z,9.07
2023-03-05T13:34:23.347Z,9.10
2023-03-05T13:37:19.102Z,9.27
2023-03-05T13:39:59.441Z,9.52
2023-03-05T13:42:29.965Z,9.70
2023-03-05T13:44:59.035Z,9.95
2023-03-05T13:47:31.662Z,9.00
2023-03-05T13:50:00.121Z,9.40
2023-03-05T13:52:32.725Z,9.95
2023-03-05T13:55:00.677Z,9.23
2023-03-05T13:57:34.683Z,8.50
2023-03-05T14:00:01.186Z,32.20
2023-03-05T14:02:31.772Z,14.13
2023-03-05T14:04:59.152Z,18.25
2023-03-05T14:07:31.873Z,15.68
2023-03-05T14:09:59.767Z,10.93
2023-03-05T14:12:40.873Z,24.20
2023-03-05T14:15:27.100Z,9.68
2023-03-05T14:18:19.042Z,8.07
2023-03-05T14:21:02.388Z,8.35
2023-03-05T14:23:35.130Z,8.05
2023-03-05T14:26:32.547Z,8.15
2023-03-05T14:29:13.111Z,8.60
2023-03-05T14:32:07.527Z,8.50
2023-03-05T14:34:39.981Z,7.95
2023-03-05T14:37:20.089Z,9.07
2023-03-05T14:40:14.354Z,8.82
2023-03-05T14:42:54.485Z,8.13
2023-03-05T14:45:26.897Z,7.60
2023-03-05T14:47:55.316Z,8.90
2023-03-05T14:50:38.580Z,7.70
2023-03-05T14:53:24.030Z,8.85
2023-03-05T14:55:57.220Z,8.27
2023-03-05T14:58:32.177Z,8.73
2023-03-05T15:01:30.823Z,8.48
2023-03-05T15:03:57.240Z,8.60
2023-03-05T15:06:38.106Z,8.75
2023-03-05T15:09:05.941Z,8.27
2023-03-05T15:11:32.414Z,9.10
2023-03-05T15:13:58.878Z,8.80
2023-03-05T15:16:25.602Z,8.85
2023-03-05T15:18:51.971Z,8.68
2023-03-05T15:21:18.393Z,9.20
2023-03-05T15:23:45.237Z,9.57
2023-03-05T15:26:15.846Z,8.93
2023-03-05T15:28:43.075Z,8.75
2023-03-05T15:31:16.737Z,8.60
2023-03-05T15:33:43.263Z,8.57
2023-03-05T15:36:19.939Z,9.23
2023-03-05T15:38:47.981Z,8.82
2023-03-05T15:41:14.468Z,8.43
2023-03-05T15:43:41.037Z,8.02
2023-03-05T15:46:07.496Z,9.00
2023-03-05T15:48:39.242Z,8.23
2023-03-05T15:51:08.814Z,8.02
2023-03-05T15:53:35.279Z,8.40
2023-03-05T15:56:01.716Z,9.30
2023-03-05T15:58:28.103Z,7.78
2023-03-05T16:00:54.609Z,8.02
2023-03-05T16:03:29.456Z,8.15
2023-03-05T16:05:55.951Z,7.70
2023-03-05T16:08:22.344Z,7.97
2023-03-05T16:10:53.988Z,7.60
2023-03-05T16:13:21.718Z,7.45
2023-03-05T16:15:52.840Z,7.45
2023-03-05T16:18:20.222Z,7.22
2023-03-05T16:20:47.653Z,7.85
2023-03-05T16:23:14.517Z,7.40
2023-03-05T16:25:40.952Z,7.07
2023-03-05T16:28:07.332Z,7.63
2023-03-05T16:30:33.728Z,7.47
2023-03-05T16:33:00.187Z,7.45
2023-03-05T16:35:29.729Z,6.93
2023-03-05T16:37:56.193Z,7.03
2023-03-05T16:40:22.683Z,7.20
2023-03-05T16:43:05.354Z,7.60
2023-03-05T16:45:32.050Z,8.02
2023-03-05T16:48:21.226Z,7.00
2023-03-05T16:50:49.633Z,14.38
2023-03-05T16:53:20.323Z,10.90
2023-03-05T16:55:47.737Z,8.80
2023-03-05T16:58:15.181Z,6.50
2023-03-05T17:00:46.767Z,6.50
2023-03-05T17:03:23.572Z,6.65
2023-03-05T17:05:55.050Z,6.70
2023-03-05T17:08:24.314Z,7.30
2023-03-05T17:11:12.547Z,6.93
2023-03-05T17:13:48.191Z,7.05
2023-03-05T17:16:17.584Z,6.40
2023-03-05T17:18:44.133Z,6.38
2023-03-05T17:21:12.653Z,6.07
2023-03-05T17:23:40.638Z,6.20
2023-03-05T17:26:20.764Z,6.60
2023-03-05T17:28:59.763Z,6.43
2023-03-05T17:31:26.182Z,6.22
2023-03-05T17:33:54.890Z,6.82
2023-03-05T17:36:22.890Z,6.88
2023-03-05T17:38:50.619Z,6.88
2023-03-05T17:41:21.886Z,6.80
2023-03-05T17:43:48.454Z,6.00
2023-03-05T17:46:15.437Z,7.25
2023-03-05T17:48:42.220Z,6.30
2023-03-05T17:51:11.386Z,7.20
2023-03-05T17:53:45.934Z,7.25
2023-03-05T17:56:14.156Z,6.78
2023-03-05T17:58:40.882Z,6.95
2023-03-05T18:01:08.259Z,7.30
2023-03-05T18:03:36.581Z,7.20
2023-03-05T18:06:04.907Z,7.25
2023-03-05T18:08:31.313Z,7.35
2023-03-05T18:10:59.121Z,6.95
2023-03-05T18:13:25.719Z,7.35
2023-03-05T18:16:00.120Z,7.93
2023-03-05T18:18:26.666Z,7.47
2023-03-05T18:21:10.059Z,8.93
2023-03-05T18:23:37.522Z,8.30
2023-03-05T18:26:07.071Z,7.95
2023-03-05T18:28:33.528Z,8.52
2023-03-05T18:31:02.934Z,8.00
2023-03-05T18:33:29.571Z,8.02
2023-03-05T18:35:57.473Z,8.00
2023-03-05T18:38:29.754Z,9.07
2023-03-05T18:41:02.718Z,9.75
2023-03-05T18:43:29.364Z,9.32
2023-03-05T18:45:56.313Z,8.70
2023-03-05T18:48:23.128Z,9.25
2023-03-05T18:50:53.972Z,8.77
2023-03-05T18:53:21.561Z,10.15
2023-03-05T18:55:49.754Z,9.82
2023-03-05T18:58:25.902Z,10.68
2023-03-05T19:00:52.779Z,8.82
2023-03-05T19:03:22.854Z,8.43
2023-03-05T19:05:51.136Z,8.02
2023-03-05T19:08:23.897Z,8.35
2023-03-05T19:10:50.370Z,7.90
2023-03-05T19:13:39.828Z,8.75
2023-03-05T19:16:33.769Z,8.10
2023-03-05T19:19:13.755Z,8.40
2023-03-05T19:21:41.302Z,8.40
2023-03-05T19:24:08.542Z,9.15
2023-03-05T19:27:10.107Z,9.57
2023-03-05T19:29:37.682Z,9.15
2023-03-05T19:32:05.220Z,9.32
2023-03-05T19:34:32.730Z,9.95
2023-03-05T19:36:59.248Z,9.52
2023-03-05T19:39:25.651Z,11.90
2023-03-05T19:41:52.098Z,14.10
2023-03-05T19:44:19.316Z,14.45
2023-03-05T19:46:48.117Z,11.30
2023-03-05T19:49:24.104Z,12.65
2023-03-05T19:51:50.648Z,10.57
2023-03-05T19:54:24.440Z,11.82
2023-03-05T19:56:54.757Z,12.55
2023-03-05T19:59:23.011Z,10.73
2023-03-05T20:01:49.855Z,11.15
2023-03-05T20:04:19.427Z,10.70
2023-03-05T20:06:46.308Z,11.95
2023-03-05T20:09:13.238Z,11.05
2023-03-05T20:11:40.159Z,10.93
2023-03-05T20:14:07.335Z,10.18
2023-03-05T20:16:36.356Z,10.57
2023-03-05T20:19:05.370Z,10.68
2023-03-05T20:21:38.764Z,10.23
2023-03-05T20:24:09.969Z,10.52
2023-03-05T20:26:38.400Z,10.30
2023-03-05T20:29:05.066Z,10.07
2023-03-05T20:31:37.086Z,10.38
2023-03-05T20:34:09.216Z,10.35
2023-03-05T20:36:35.725Z,10.48
2023-03-05T20:39:05.458Z,11.13
2023-03-05T20:41:33.544Z,11.48
2023-03-05T20:44:00.186Z,11.05
2023-03-05T20:46:29.642Z,11.00
2023-03-05T20:48:59.089Z,12.43
2023-03-05T20:51:31.265Z,11.27
2023-03-05T20:54:04.511Z,11.25
2023-03-05T20:56:32.970Z,11.25
2023-03-05T20:59:01.104Z,10.98
2023-03-05T21:01:28.009Z,10.57
2023-03-05T21:03:57.057Z,11.40
2023-03-05T21:06:24.929Z,10.05
2023-03-05T21:08:51.399Z,10.05
2023-03-05T21:11:23.590Z,11.15
2023-03-05T21:13:50.016Z,10.30
2023-03-05T21:16:22.833Z,9.60
2023-03-05T21:18:50.746Z,9.40
2023-03-05T21:21:17.447Z,10.25
2023-03-05T21:23:43.882Z,10.75
2023-03-05T21:26:10.337Z,11.25
2023-03-05T21:28:41.447Z,10.43
2023-03-05T21:31:11.321Z,11.35
2023-03-05T21:33:38.323Z,11.18
2023-03-05T21:36:05.194Z,11.70
2023-03-05T21:38:34.069Z,11.80
2023-03-05T21:41:01.391Z,11.75
2023-03-05T21:43:28.817Z,10.70
2023-03-05T21:45:57.185Z,12.00
2023-03-05T21:48:24.694Z,11.70
2023-03-05T21:50:51.489Z,9.85
2023-03-05T21:53:19.422Z,10.52
2023-03-05T21:56:03.304Z,9.43
2023-03-05T21:58:32.174Z,10.75
2023-03-05T22:00:58.986Z,10.57
2023-03-05T22:03:26.754Z,10.65
2023-03-05T22:05:54.206Z,11.93
2023-03-05T22:08:22.877Z,12.48
2023-03-05T22:10:49.670Z,13.25
2023-03-05T22:13:20.602Z,11.52
2023-03-05T22:16:01.333Z,10.70
2023-03-05T22:18:30.221Z,10.73
2023-03-05T22:20:57.467Z,11.98
2023-03-05T22:23:27.185Z,13.10
2023-03-05T22:25:58.874Z,11.55
2023-03-05T22:28:28.418Z,11.10
2023-03-05T22:30:55.480Z,10.25
2023-03-05T22:33:23.174Z,10.13
2023-03-05T22:35:50.088Z,10.40
2023-03-05T22:38:27.771Z,10.02
2023-03-05T22:40:54.161Z,11.38
2023-03-05T22:43:20.793Z,10.55
2023-03-05T22:45:47.288Z,10.40
2023-03-05T22:48:13.800Z,11.18
2023-03-05T22:50:42.218Z,10.13
2023-03-05T22:53:08.685Z,10.70
2023-03-05T22:55:41.281Z,13.55
2023-03-05T22:58:07.713Z,12.13
2023-03-05T23:00:34.266Z,13.98
2023-03-05T23:03:03.873Z,17.13
2023-03-05T23:05:30.323Z,14.93
2023-03-05T23:07:56.727Z,13.18
2023-03-05T23:10:27.262Z,10.55
2023-03-05T23:12:55.604Z,10.43
2023-03-05T23:15:26.222Z,11.68
2023-03-05T23:17:52.669Z,11.57
2023-03-05T23:20:21.509Z,11.25
2023-03-05T23:22:48.709Z,10.50
2023-03-05T23:25:16.503Z,9.65
2023-03-05T23:27:43.144Z,10.63
2023-03-05T23:30:21.444Z,9.43
2023-03-05T23:32:56.480Z,10.02
2023-03-05T23:35:29.304Z,8.90
2023-03-05T23:37:57.633Z,9.15
2023-03-05T23:40:29.695Z,10.80
2023-03-05T23:42:56.665Z,10.73
2023-03-05T23:45:23.619Z,10.95
2023-03-05T23:47:51.503Z,10.07
2023-03-05T23:50:22.390Z,9.70
2023-03-05T23:52:54.209Z,9.98
2023-03-05T23:55:33.822Z,9.70
2023-03-05T23:58:00.890Z,9.15
